createdAt,value
2023-04-09T00:00:48.113Z,100690.34
2023-04-09T00:03:14.911Z,100690.41
2023-04-09T00:05:41.845Z,100697.38
2023-04-09T00:08:08.624Z,100714.78
2023-04-09T00:10:35.390Z,100700.88
2023-04-09T00:13:02.093Z,100704.66
2023-04-09T00:15:31.639Z,100708.94
2023-04-09T00:17:59.437Z,100712.97
2023-04-09T00:20:26.331Z,100690.59
2023-04-09T00:22:53.169Z,100697.56
2023-04-09T00:25:20.209Z,100698.34
2023-04-09T00:27:47.173Z,100692.97
2023-04-09T00:30:14.092Z,100680.31
2023-04-09T00:32:41.121Z,100691.50
2023-04-09T00:35:08.793Z,100696.84
2023-04-09T00:37:35.519Z,100702.19
2023-04-09T00:40:02.316Z,100708.41
2023-04-09T00:42:32.460Z,100697.53
2023-04-09T00:44:59.656Z,100726.94
2023-04-09T00:47:28.322Z,100743.28
2023-04-09T00:49:55.756Z,100718.53
2023-04-09T00:52:22.548Z,100750.56
2023-04-09T00:54:50.531Z,100766.19
2023-04-09T00:57:18.217Z,100774.84
2023-04-09T00:59:45.599Z,100777.38
2023-04-09T01:02:12.772Z,100755.88
2023-04-09T01:04:42.091Z,100764.34
2023-04-09T01:07:44.142Z,100760.16
2023-04-09T01:10:38.286Z,100756.56
2023-04-09T01:13:14.348Z,100736.72
2023-04-09T01:15:50.288Z,100732.22
2023-04-09T01:18:29.796Z,100733.16
2023-04-09T01:21:06.670Z,100734.13
2023-04-09T01:24:17.249Z,100732.63
2023-04-09T01:26:52.636Z,100735.41
2023-04-09T01:29:20.471Z,100717.38
2023-04-09T01:31:48.818Z,100728.63
2023-04-09T01:34:16.642Z,100743.41
2023-04-09T01:36:47.991Z,100755.53
2023-04-09T01:39:14.778Z,100760.84
2023-04-09T01:41:41.656Z,100770.28
2023-04-09T01:44:09.717Z,100760.88
2023-04-09T01:46:37.050Z,100766.19
2023-04-09T01:49:04.119Z,100760.25
2023-04-09T01:51:31.828Z,100767.09
2023-04-09T01:54:00.040Z,100758.50
2023-04-09T01:56:27.248Z,100762.13
2023-04-09T01:58:54.123Z,100760.44
2023-04-09T02:01:26.791Z,100777.78
2023-04-09T02:04:04.496Z,100778.50
2023-04-09T02:06:37.321Z,100787.19
2023-04-09T02:09:08.072Z,100779.56
2023-04-09T02:11:38.199Z,100802.75
2023-04-09T02:14:05.145Z,100801.00
2023-04-09T02:16:32.406Z,100795.94
2023-04-09T02:19:01.370Z,100800.31
2023-04-09T02:21:28.779Z,100802.09
2023-04-09T02:23:56.144Z,100804.66
2023-04-09T02:26:24.155Z,100786.59
2023-04-09T02:28:51.204Z,100811.69
2023-04-09T02:31:18.202Z,100816.97
2023-04-09T02:33:44.937Z,100806.59
2023-04-09T02:36:14.665Z,100807.50
2023-04-09T02:38:42.286Z,100819.69
2023-04-09T02:41:09.631Z,100824.91
2023-04-09T02:43:36.376Z,100807.66
2023-04-09T02:46:03.474Z,100829.28
2023-04-09T02:48:30.152Z,100831.94
2023-04-09T02:50:57.122Z,100814.66
2023-04-09T02:53:23.789Z,100826.72
2023-04-09T02:55:50.618Z,100824.16
2023-04-09T02:58:17.251Z,100827.59
2023-04-09T03:00:43.843Z,100820.75
2023-04-09T03:03:10.816Z,100803.63
2023-04-09T03:05:38.212Z,100803.72
2023-04-09T03:08:04.893Z,100830.53
2023-04-09T03:10:31.597Z,100846.09
2023-04-09T03:12:58.190Z,100829.69
2023-04-09T03:15:24.804Z,100845.31
2023-04-09T03:17:51.477Z,100844.44
2023-04-09T03:20:18.247Z,100845.34
2023-04-09T03:22:44.892Z,100843.63
2023-04-09T03:25:11.604Z,100847.06
2023-04-09T03:27:38.209Z,100853.06
2023-04-09T03:30:05.216Z,100849.53
2023-04-09T03:32:32.021Z,100838.22
2023-04-09T03:34:58.636Z,100816.50
2023-04-09T03:37:25.448Z,100822.56
2023-04-09T03:39:52.079Z,100812.13
2023-04-09T03:42:18.661Z,100806.00
2023-04-09T03:44:45.489Z,100807.63
2023-04-09T03:47:12.190Z,100779.06
2023-04-09T03:49:39.000Z,100790.16
2023-04-09T03:52:09.022Z,100790.72
2023-04-09T03:54:35.643Z,100785.34
2023-04-09T03:57:03.841Z,100771.16
2023-04-09T03:59:30.779Z,100755.38
2023-04-09T04:01:57.562Z,100729.19
2023-04-09T04:04:24.437Z,100705.63
2023-04-09T04:06:51.591Z,100718.53
2023-04-09T04:09:18.258Z,100691.66
2023-04-09T04:11:44.911Z,100706.34
2023-04-09T04:14:11.640Z,100704.59
2023-04-09T04:16:40.746Z,100676.06
2023-04-09T04:19:07.582Z,100673.38
2023-04-09T04:21:34.217Z,100687.81
2023-04-09T04:24:01.116Z,100673.16
2023-04-09T04:26:27.802Z,100672.28
2023-04-09T04:28:54.645Z,100686.34
2023-04-09T04:31:21.358Z,100687.09
2023-04-09T04:33:47.977Z,100696.31
2023-04-09T04:36:15.561Z,100687.56
2023-04-09T04:38:42.291Z,100675.91
2023-04-09T04:41:10.713Z,100652.19
2023-04-09T04:43:37.461Z,100650.88
2023-04-09T04:46:04.153Z,100627.34
2023-04-09T04:48:32.061Z,100638.22
2023-04-09T04:51:00.249Z,100628.56
2023-04-09T04:53:27.272Z,100619.84
2023-04-09T04:55:54.104Z,100597.31
2023-04-09T04:58:20.854Z,100618.06
2023-04-09T05:00:47.645Z,100618.84
2023-04-09T05:03:14.670Z,100621.47
2023-04-09T05:05:41.626Z,100607.84
2023-04-09T05:08:08.394Z,100623.03
2023-04-09T05:10:35.032Z,100619.59
2023-04-09T05:13:04.750Z,100628.09
2023-04-09T05:15:31.604Z,100634.97
2023-04-09T05:17:58.379Z,100597.91
2023-04-09T05:20:25.683Z,100625.59
2023-04-09T05:22:52.393Z,100582.13
2023-04-09T05:25:19.229Z,100625.09
2023-04-09T05:27:46.380Z,100631.94
2023-04-09T05:30:13.578Z,100591.34
2023-04-09T05:32:40.476Z,100632.72
2023-04-09T05:35:07.460Z,100647.28
2023-04-09T05:37:34.235Z,100640.09
2023-04-09T05:40:00.975Z,100637.00
2023-04-09T05:42:27.632Z,100624.72
2023-04-09T05:44:54.322Z,100590.19
2023-04-09T05:47:21.116Z,100634.72
2023-04-09T05:49:47.857Z,100623.53
2023-04-09T05:52:16.253Z,100630.38
2023-04-09T05:54:42.938Z,100623.44
2023-04-09T05:57:09.665Z,100622.06
2023-04-09T05:59:36.357Z,100598.13
2023-04-09T06:02:03.073Z,100583.47
2023-04-09T06:04:29.718Z,100591.19
2023-04-09T06:07:00.481Z,100602.31
2023-04-09T06:09:30.130Z,100598.44
2023-04-09T06:11:58.048Z,100614.06
2023-04-09T06:14:24.815Z,100602.47
2023-04-09T06:16:51.430Z,100576.06
2023-04-09T06:19:18.814Z,100600.97
2023-04-09T06:21:46.431Z,100583.47
2023-04-09T06:24:13.055Z,100602.19
2023-04-09T06:26:39.690Z,100608.00
2023-04-09T06:29:06.473Z,100588.41
2023-04-09T06:31:33.514Z,100575.81
2023-04-09T06:34:00.503Z,100597.59
2023-04-09T06:36:27.964Z,100586.56
2023-04-09T06:38:54.810Z,100593.84
2023-04-09T06:41:22.516Z,100594.84
2023-04-09T06:43:50.081Z,100596.63
2023-04-09T06:46:20.270Z,100591.47
2023-04-09T06:48:47.291Z,100587.72
2023-04-09T06:51:15.251Z,100592.59
2023-04-09T06:53:42.410Z,100578.00
2023-04-09T06:56:09.368Z,100596.47
2023-04-09T06:58:36.356Z,100585.78
2023-04-09T07:01:03.225Z,100588.16
2023-04-09T07:03:30.335Z,100591.19
2023-04-09T07:05:57.845Z,100584.75
2023-04-09T07:08:25.115Z,100591.63
2023-04-09T07:10:52.019Z,100567.09
2023-04-09T07:13:18.757Z,100594.56
2023-04-09T07:15:45.551Z,100589.91
2023-04-09T07:18:12.329Z,100572.28
2023-04-09T07:20:39.117Z,100580.66
2023-04-09T07:23:06.277Z,100591.94
2023-04-09T07:25:32.979Z,100589.16
2023-04-09T07:27:59.925Z,100556.63
2023-04-09T07:30:26.686Z,100590.09
2023-04-09T07:32:53.541Z,100568.81
2023-04-09T07:35:20.523Z,100569.00
2023-04-09T07:37:47.182Z,100561.22
2023-04-09T07:40:14.078Z,100578.19
2023-04-09T07:42:40.938Z,100598.72
2023-04-09T07:45:08.152Z,100584.63
2023-04-09T07:47:34.887Z,100583.47
2023-04-09T07:50:01.796Z,100586.19
2023-04-09T07:52:28.556Z,100580.44
2023-04-09T07:54:55.363Z,100566.16
2023-04-09T07:57:22.198Z,100539.13
2023-04-09T07:59:48.904Z,100572.31
2023-04-09T08:02:15.818Z,100581.03
2023-04-09T08:04:42.734Z,100577.69
2023-04-09T08:07:09.588Z,100554.34
2023-04-09T08:09:36.546Z,100583.75
2023-04-09T08:12:03.603Z,100572.25
2023-04-09T08:14:30.491Z,100592.38
2023-04-09T08:16:57.143Z,100574.50
2023-04-09T08:19:23.748Z,100600.34
2023-04-09T08:21:50.442Z,100590.69
2023-04-09T08:24:17.328Z,100584.41
2023-04-09T08:26:44.291Z,100579.28
2023-04-09T08:29:13.132Z,100572.78
2023-04-09T08:31:39.910Z,100573.38
2023-04-09T08:34:06.849Z,100575.63
2023-04-09T08:36:35.462Z,100596.72
2023-04-09T08:39:02.735Z,100604.66
2023-04-09T08:41:29.886Z,100593.31
2023-04-09T08:43:59.263Z,100616.38
2023-04-09T08:46:27.477Z,100623.38
2023-04-09T08:48:55.355Z,100621.03
2023-04-09T08:51:23.673Z,100622.03
2023-04-09T08:53:56.607Z,100598.75
2023-04-09T08:56:23.946Z,100584.09
2023-04-09T08:58:51.633Z,100583.63
2023-04-09T09:01:26.468Z,100587.97
2023-04-09T09:03:57.614Z,100581.22
2023-04-09T09:06:27.994Z,100553.41
2023-04-09T09:09:09.013Z,100563.75
2023-04-09T09:11:43.046Z,100572.13
2023-04-09T09:14:12.025Z,100592.19
2023-04-09T09:16:43.126Z,100585.44
2023-04-09T09:19:11.902Z,100529.94
2023-04-09T09:21:40.281Z,100515.97
2023-04-09T09:24:17.184Z,100452.94
2023-04-09T09:26:43.954Z,100434.94
2023-04-09T09:29:10.590Z,100448.91
2023-04-09T09:31:47.624Z,100447.34
2023-04-09T09:34:14.358Z,100454.88
2023-04-09T09:36:41.011Z,100454.44
2023-04-09T09:39:10.696Z,100485.09
2023-04-09T09:41:37.391Z,100476.88
2023-04-09T09:46:53.518Z,100491.75
2023-04-09T09:49:20.883Z,100501.13
2023-04-09T09:51:47.760Z,100532.94
2023-04-09T09:54:15.924Z,100622.69
2023-04-09T09:56:44.179Z,100604.06
2023-04-09T09:59:22.044Z,100561.06
2023-04-09T10:01:52.763Z,100507.03
2023-04-09T10:04:20.819Z,100485.66
2023-04-09T10:06:48.611Z,100494.72
2023-04-09T10:09:15.685Z,100473.81
2023-04-09T10:11:48.004Z,100447.06
2023-04-09T10:14:15.044Z,100393.00
2023-04-09T10:16:42.059Z,100381.44
2023-04-09T10:19:14.304Z,100384.22
2023-04-09T10:22:02.192Z,100385.03
2023-04-09T10:24:28.803Z,100337.72
2023-04-09T10:26:58.392Z,100350.88
2023-04-09T10:29:29.269Z,100320.84
2023-04-09T10:32:07.047Z,100316.16
2023-04-09T10:34:42.836Z,100313.88
2023-04-09T10:37:14.232Z,100298.94
2023-04-09T10:39:45.809Z,100230.41
2023-04-09T10:42:16.271Z,100252.75
2023-04-09T10:44:43.301Z,100233.88
2023-04-09T10:47:10.992Z,100203.34
2023-04-09T10:49:41.484Z,100202.75
2023-04-09T10:52:12.205Z,100191.25
2023-04-09T10:54:46.468Z,100188.03
2023-04-09T10:57:15.534Z,100160.38
2023-04-09T10:59:53.115Z,100165.97
2023-04-09T11:02:38.313Z,100151.16
2023-04-09T11:05:25.210Z,100124.91
2023-04-09T11:08:11.242Z,100137.63
2023-04-09T11:10:41.316Z,100145.97
2023-04-09T11:13:15.035Z,100163.44
2023-04-09T11:15:42.103Z,100141.97
2023-04-09T11:18:12.166Z,100159.66
2023-04-09T11:20:38.953Z,100199.56
2023-04-09T11:23:05.871Z,100203.50
2023-04-09T11:25:33.916Z,100160.53
2023-04-09T11:28:03.080Z,100132.84
2023-04-09T11:30:31.150Z,100125.78
2023-04-09T11:32:58.190Z,100094.00
2023-04-09T11:35:24.993Z,100088.84
2023-04-09T11:37:52.545Z,100084.22
2023-04-09T11:40:22.145Z,100091.59
2023-04-09T11:42:51.233Z,99956.47
2023-04-09T11:45:19.007Z,99858.84
2023-04-09T11:47:46.824Z,99843.75
2023-04-09T11:50:14.608Z,99843.25
2023-04-09T11:52:41.804Z,99823.38
2023-04-09T11:55:11.440Z,99808.66
2023-04-09T11:57:43.031Z,99840.78
2023-04-09T12:00:19.808Z,99790.78
2023-04-09T12:02:48.164Z,99789.03
2023-04-09T12:05:26.714Z,99801.50
2023-04-09T12:07:58.206Z,99793.66
2023-04-09T12:10:29.422Z,99788.56
2023-04-09T12:13:13.886Z,99795.97
2023-04-09T12:15:43.521Z,99773.78
2023-04-09T12:18:12.050Z,99767.19
2023-04-09T12:20:40.873Z,99743.66
2023-04-09T12:23:08.406Z,99725.66
2023-04-09T12:25:37.140Z,99764.94
2023-04-09T12:28:04.972Z,99768.88
2023-04-09T12:30:32.369Z,99765.94
2023-04-09T12:32:59.057Z,99758.81
2023-04-09T12:35:26.025Z,99745.13
2023-04-09T12:37:52.669Z,99761.13
2023-04-09T12:40:19.853Z,99763.66
2023-04-09T12:42:46.935Z,99758.78
2023-04-09T12:45:15.805Z,99760.50
2023-04-09T12:47:42.805Z,99757.41
2023-04-09T12:50:10.513Z,99744.44
2023-04-09T12:52:37.631Z,99755.41
2023-04-09T12:55:05.170Z,99750.69
2023-04-09T12:57:31.886Z,99726.47
2023-04-09T12:59:59.032Z,99749.38
2023-04-09T13:02:26.088Z,99742.00
2023-04-09T13:04:55.729Z,99747.50
2023-04-09T13:07:22.869Z,99750.84
2023-04-09T13:09:52.729Z,99757.75
2023-04-09T13:12:21.671Z,99756.34
2023-04-09T13:14:48.680Z,99753.31
2023-04-09T13:17:16.133Z,99758.13
2023-04-09T13:19:43.062Z,99751.81
2023-04-09T13:22:09.997Z,99754.47
2023-04-09T13:24:36.833Z,99721.09
2023-04-09T13:27:05.700Z,99759.16
2023-04-09T13:29:32.477Z,99755.59
2023-04-09T13:32:01.823Z,99752.56
2023-04-09T13:34:28.529Z,99761.56
2023-04-09T13:36:55.422Z,99762.47
2023-04-09T13:39:22.061Z,100156.69
2023-04-09T13:41:48.871Z,100589.53
2023-04-09T13:44:15.719Z,100804.06
2023-04-09T13:46:42.527Z,100686.16
2023-04-09T13:49:09.285Z,100536.03
2023-04-09T13:51:36.094Z,100467.84
2023-04-09T13:54:05.329Z,100441.66
2023-04-09T13:56:32.885Z,100429.31
2023-04-09T13:58:59.626Z,100415.81
2023-04-09T14:01:28.324Z,100417.59
2023-04-09T14:03:55.477Z,100415.66
2023-04-09T14:06:22.509Z,100431.94
2023-04-09T14:08:49.198Z,100438.19
2023-04-09T14:11:16.866Z,100462.88
2023-04-09T14:13:43.465Z,100451.09
2023-04-09T14:16:10.474Z,100516.50
2023-04-09T14:18:37.269Z,100550.91
2023-04-09T14:21:04.102Z,100572.28
2023-04-09T14:23:30.865Z,100568.84
2023-04-09T14:25:57.512Z,100578.19
2023-04-09T14:28:24.206Z,100590.63
2023-04-09T14:30:51.191Z,100619.53
2023-04-09T14:33:17.908Z,100643.09
2023-04-09T14:35:44.663Z,100644.22
2023-04-09T14:38:11.490Z,100654.16
2023-04-09T14:40:38.268Z,100666.47
2023-04-09T14:43:04.996Z,100655.09
2023-04-09T14:45:32.319Z,100632.34
2023-04-09T14:47:59.088Z,100638.25
2023-04-09T14:50:25.884Z,100631.22
2023-04-09T14:52:52.685Z,100607.00
2023-04-09T14:55:19.414Z,100580.72
2023-04-09T14:57:46.106Z,100574.72
2023-04-09T15:00:13.172Z,100568.44
2023-04-09T15:02:40.084Z,100537.88
2023-04-09T15:05:07.953Z,100572.38
2023-04-09T15:07:34.916Z,100573.56
2023-04-09T15:10:02.026Z,100530.41
2023-04-09T15:12:30.719Z,100548.69
2023-04-09T15:14:57.535Z,100571.78
2023-04-09T15:17:24.978Z,100592.41
2023-04-09T15:19:52.700Z,100591.50
2023-04-09T15:22:19.381Z,100596.94
2023-04-09T15:24:46.143Z,100594.41
2023-04-09T15:27:12.785Z,100607.38
2023-04-09T15:29:39.568Z,100610.28
2023-04-09T15:32:06.375Z,100577.47
2023-04-09T15:34:33.225Z,100618.34
2023-04-09T15:36:59.888Z,100612.69
2023-04-09T15:39:28.593Z,100610.72
2023-04-09T15:41:57.718Z,100640.91
2023-04-09T15:44:25.382Z,100626.44
2023-04-09T15:46:52.109Z,100656.78
2023-04-09T15:49:19.751Z,100648.41
2023-04-09T15:51:46.542Z,100683.19
2023-04-09T15:54:13.349Z,100672.81
2023-04-09T15:56:40.535Z,100641.44
2023-04-09T15:59:08.428Z,100701.78
2023-04-09T16:01:36.491Z,100719.13
2023-04-09T16:04:04.857Z,100725.41
2023-04-09T16:06:31.955Z,100740.25
2023-04-09T16:09:00.680Z,100761.06
2023-04-09T16:11:27.449Z,100748.94
2023-04-09T16:13:54.038Z,100759.41
2023-04-09T16:16:23.541Z,100768.03
2023-04-09T16:18:50.376Z,100756.09
2023-04-09T16:21:17.337Z,100756.06
2023-04-09T16:23:43.961Z,100759.41
2023-04-09T16:26:10.894Z,100767.28
2023-04-09T16:28:37.570Z,100764.69
2023-04-09T16:31:04.208Z,100757.53
2023-04-09T16:33:31.151Z,100760.19
2023-04-09T16:35:57.797Z,100764.47
2023-04-09T16:38:27.550Z,100723.09
2023-04-09T16:40:54.296Z,100753.16
2023-04-09T16:43:20.993Z,100733.03
2023-04-09T16:45:47.685Z,100733.13
2023-04-09T16:48:14.445Z,100717.53
2023-04-09T16:50:41.361Z,100694.88
2023-04-09T16:53:08.252Z,100692.88
2023-04-09T16:55:35.292Z,100660.84
2023-04-09T16:58:01.997Z,100649.47
2023-04-09T17:00:28.846Z,100646.84
2023-04-09T17:02:57.897Z,100664.84
2023-04-09T17:05:24.882Z,100624.44
2023-04-09T17:07:52.501Z,100665.94
2023-04-09T17:10:19.844Z,100671.06
2023-04-09T17:12:47.356Z,100682.56
2023-04-09T17:15:14.277Z,100704.94
2023-04-09T17:17:41.262Z,100719.84
2023-04-09T17:20:08.336Z,100722.50
2023-04-09T17:22:35.555Z,100724.50
2023-04-09T17:25:02.627Z,100753.00
2023-04-09T17:27:29.293Z,100767.78
2023-04-09T17:29:56.155Z,100763.69
2023-04-09T17:32:22.931Z,100768.13
2023-04-09T17:34:49.640Z,100713.19
2023-04-09T17:37:16.493Z,100788.03
2023-04-09T17:39:43.119Z,100802.91
2023-04-09T17:42:11.909Z,100796.78
2023-04-09T17:44:38.783Z,100799.59
2023-04-09T17:47:07.537Z,100789.47
2023-04-09T17:49:34.587Z,100786.06
2023-04-09T17:52:01.722Z,100783.47
2023-04-09T17:54:33.788Z,100792.97
2023-04-09T17:57:01.714Z,100792.97
2023-04-09T17:59:28.356Z,100773.44
2023-04-09T18:01:56.806Z,100800.94
2023-04-09T18:04:24.433Z,100804.44
2023-04-09T18:06:51.608Z,100825.34
2023-04-09T18:09:18.474Z,100822.66
2023-04-09T18:11:49.127Z,100797.59
2023-04-09T18:14:15.830Z,100814.94
2023-04-09T18:16:42.519Z,100799.38
2023-04-09T18:19:09.357Z,100817.50
2023-04-09T18:21:36.690Z,100815.69
2023-04-09T18:24:04.004Z,100809.56
2023-04-09T18:26:31.416Z,100800.88
2023-04-09T18:29:00.732Z,100800.81
2023-04-09T18:31:27.752Z,100784.38
2023-04-09T18:33:54.436Z,100792.03
2023-04-09T18:36:21.096Z,100774.00
2023-04-09T18:38:47.777Z,100777.44
2023-04-09T18:41:22.376Z,100794.91
2023-04-09T18:43:49.004Z,100800.25
2023-04-09T18:46:15.706Z,100794.31
2023-04-09T18:48:43.657Z,100803.84
2023-04-09T18:51:11.260Z,100801.16
2023-04-09T18:53:37.957Z,100811.47
2023-04-09T18:56:04.873Z,100791.59
2023-04-09T18:58:33.706Z,100792.47
2023-04-09T19:01:01.017Z,100791.59
2023-04-09T19:03:30.239Z,100802.84
2023-04-09T19:05:59.740Z,100812.41
2023-04-09T19:08:27.394Z,100819.44
2023-04-09T19:10:55.674Z,100833.31
2023-04-09T19:13:22.353Z,100800.66
2023-04-09T19:15:49.033Z,100848.25
2023-04-09T19:18:17.205Z,100866.59
2023-04-09T19:20:43.998Z,100863.41
2023-04-09T19:23:10.914Z,100885.22
2023-04-09T19:25:37.662Z,100908.63
2023-04-09T19:28:04.302Z,100890.66
2023-04-09T19:30:31.155Z,100913.25
2023-04-09T19:33:00.312Z,100931.53
2023-04-09T19:35:26.943Z,100948.06
2023-04-09T19:37:53.789Z,100950.69
2023-04-09T19:40:20.433Z,100973.34
2023-04-09T19:42:47.146Z,100961.28
2023-04-09T19:45:14.111Z,100988.13
2023-04-09T19:47:41.132Z,100997.69
2023-04-09T19:50:08.073Z,100999.66
2023-04-09T19:52:36.551Z,101019.47
2023-04-09T19:55:05.125Z,101014.38
2023-04-09T19:57:31.959Z,101025.72
2023-04-09T19:59:58.677Z,101046.53
2023-04-09T20:02:25.606Z,101053.63
2023-04-09T20:04:52.432Z,101028.69
2023-04-09T20:07:19.091Z,101071.88
2023-04-09T20:09:47.060Z,101083.13
2023-04-09T20:12:13.812Z,101082.41
2023-04-09T20:14:40.603Z,101090.31
2023-04-09T20:17:09.848Z,101103.25
2023-04-09T20:19:38.027Z,101116.31
2023-04-09T20:22:04.839Z,101123.34
2023-04-09T20:24:32.338Z,101111.50
2023-04-09T20:26:59.721Z,101147.84
2023-04-09T20:29:26.544Z,101149.56
2023-04-09T20:31:53.531Z,101169.53
2023-04-09T20:34:20.320Z,101166.22
2023-04-09T20:36:47.854Z,101202.72
2023-04-09T20:39:14.495Z,101198.28
2023-04-09T20:41:41.188Z,101206.22
2023-04-09T20:44:07.851Z,101215.03
2023-04-09T20:46:34.616Z,101226.31
2023-04-09T20:49:01.698Z,101243.78
2023-04-09T20:51:28.491Z,101255.00
2023-04-09T20:53:55.246Z,101239.63
2023-04-09T20:56:21.980Z,101268.22
2023-04-09T20:58:48.668Z,101269.09
2023-04-09T21:01:15.801Z,101269.13
2023-04-09T21:03:42.960Z,101293.50
2023-04-09T21:06:10.195Z,101295.22
2023-04-09T21:08:37.392Z,101292.59
2023-04-09T21:11:04.250Z,101293.53
2023-04-09T21:13:35.523Z,101308.31
2023-04-09T21:16:08.889Z,101290.16
2023-04-09T21:18:35.564Z,101294.38
2023-04-09T21:21:06.431Z,101301.28
2023-04-09T21:23:33.089Z,101288.13
2023-04-09T21:25:59.720Z,101282.94
2023-04-09T21:28:26.566Z,101282.88
2023-04-09T21:30:53.265Z,101277.63
2023-04-09T21:33:19.960Z,101268.09
2023-04-09T21:35:46.615Z,101252.41
2023-04-09T21:38:13.345Z,101237.66
2023-04-09T21:40:39.979Z,101243.66
2023-04-09T21:43:06.851Z,101238.44
2023-04-09T21:45:33.566Z,101221.88
2023-04-09T21:48:00.308Z,101219.16
2023-04-09T21:50:26.973Z,101209.59
2023-04-09T21:52:53.650Z,101208.69
2023-04-09T21:55:20.473Z,101190.56
2023-04-09T21:57:47.087Z,101200.06
2023-04-09T22:00:16.266Z,101201.78
2023-04-09T22:02:43.112Z,101191.41
2023-04-09T22:05:10.399Z,101192.19
2023-04-09T22:07:39.274Z,101166.22
2023-04-09T22:10:06.603Z,101180.00
2023-04-09T22:12:33.644Z,101172.19
2023-04-09T22:15:00.751Z,101165.28
2023-04-09T22:17:27.448Z,101173.00
2023-04-09T22:19:54.242Z,101173.00
2023-04-09T22:22:21.109Z,101164.38
2023-04-09T22:24:47.774Z,101160.06
2023-04-09T22:27:14.502Z,101143.72
2023-04-09T22:29:41.632Z,101149.75
2023-04-09T22:32:08.246Z,101142.00
2023-04-09T22:34:34.896Z,101139.34
2023-04-09T22:37:02.190Z,101156.69
2023-04-09T22:39:29.068Z,101134.19
2023-04-09T22:41:56.283Z,101138.47
2023-04-09T22:44:23.073Z,101134.94
2023-04-09T22:46:49.794Z,101152.25
2023-04-09T22:49:17.600Z,101139.28
2023-04-09T22:51:44.301Z,101135.88
2023-04-09T22:54:11.305Z,101135.88
2023-04-09T22:56:37.922Z,101143.69
2023-04-09T22:59:04.531Z,101136.78
2023-04-09T23:01:32.304Z,101146.31
2023-04-09T23:03:58.972Z,101148.94
2023-04-09T23:06:25.817Z,101140.16
2023-04-09T23:08:52.756Z,101128.97
2023-04-09T23:11:19.633Z,101142.84
2023-04-09T23:13:46.516Z,101139.34
2023-04-09T23:16:14.443Z,101128.13
2023-04-09T23:18:41.171Z,101114.34
2023-04-09T23:21:08.673Z,101126.41
2023-04-09T23:23:36.198Z,101121.31
2023-04-09T23:26:03.014Z,101132.63
2023-04-09T23:28:30.061Z,101132.56
2023-04-09T23:30:57.006Z,101128.28
2023-04-09T23:33:23.869Z,101123.09
2023-04-09T23:35:50.965Z,101146.56
2023-04-09T23:38:17.722Z,101149.19
2023-04-09T23:40:44.479Z,101144.06
2023-04-09T23:43:11.213Z,101158.03
2023-04-09T23:45:37.998Z,101158.09
2023-04-09T23:48:06.334Z,101142.50
2023-04-09T23:50:33.123Z,101158.19
2023-04-09T23:53:03.419Z,101158.25
2023-04-09T23:55:30.284Z,101177.41
2023-04-09T23:57:56.940Z,101167.13
